createdAt,value
2023-04-21T00:00:08.330Z,6.57
2023-04-21T00:02:39.767Z,6.13
2023-04-21T00:05:11.058Z,6.30
2023-04-21T00:07:39.674Z,6.33
2023-04-21T00:10:08.644Z,5.33
2023-04-21T00:12:35.974Z,4.33
2023-04-21T00:15:03.800Z,4.93
2023-04-21T00:17:31.191Z,4.87
2023-04-21T00:19:58.784Z,4.67
2023-04-21T00:22:26.170Z,4.90
2023-04-21T00:24:53.368Z,4.23
2023-04-21T00:27:20.653Z,4.80
2023-04-21T00:29:47.835Z,4.20
2023-04-21T00:32:15.270Z,3.70
2023-04-21T00:34:42.436Z,4.30
2023-04-21T00:37:09.682Z,5.10
2023-04-21T00:39:36.899Z,3.70
2023-04-21T00:42:04.278Z,4.47
2023-04-21T00:44:31.510Z,5.10
2023-04-21T00:46:58.844Z,5.00
2023-04-21T00:49:26.584Z,6.10
2023-04-21T00:51:54.516Z,5.67
2023-04-21T00:54:26.097Z,5.27
2023-04-21T00:56:53.853Z,6.57
2023-04-21T00:59:21.502Z,5.63
2023-04-21T01:01:48.751Z,6.27
2023-04-21T01:04:16.079Z,6.30
2023-04-21T01:06:43.697Z,5.50
2023-04-21T01:09:12.819Z,5.07
2023-04-21T01:11:40.366Z,4.33
2023-04-21T01:14:07.718Z,4.87
2023-04-21T01:16:34.938Z,4.30
2023-04-21T01:19:02.506Z,3.60
2023-04-21T01:21:32.097Z,3.80
2023-04-21T01:23:59.400Z,3.20
2023-04-21T01:26:26.608Z,4.00
2023-04-21T01:28:57.142Z,3.60
2023-04-21T01:31:24.535Z,4.43
2023-04-21T01:33:51.811Z,3.17
2023-04-21T01:36:19.110Z,3.33
2023-04-21T01:38:46.411Z,3.13
2023-04-21T01:41:13.772Z,3.93
2023-04-21T01:43:41.059Z,2.77
2023-04-21T01:46:09.153Z,3.30
2023-04-21T01:48:37.327Z,3.60
2023-04-21T01:51:04.725Z,2.87
2023-04-21T01:53:31.918Z,3.53
2023-04-21T01:55:59.424Z,2.70
2023-04-21T01:58:26.643Z,3.40
2023-04-21T02:00:53.885Z,2.87
2023-04-21T02:03:21.318Z,3.10
2023-04-21T02:05:50.958Z,3.47
2023-04-21T02:08:18.247Z,3.40
2023-04-21T02:10:45.468Z,3.63
2023-04-21T02:13:12.695Z,3.30
2023-04-21T02:15:39.965Z,3.20
2023-04-21T02:18:08.442Z,3.83
2023-04-21T02:20:35.909Z,3.67
2023-04-21T02:23:03.332Z,4.77
2023-04-21T02:25:30.855Z,3.30
2023-04-21T02:27:58.105Z,3.83
2023-04-21T02:30:25.345Z,3.73
2023-04-21T02:32:52.705Z,4.27
2023-04-21T02:35:20.234Z,3.03
2023-04-21T02:37:47.466Z,3.30
2023-04-21T02:40:14.693Z,3.20
2023-04-21T02:42:41.870Z,3.43
2023-04-21T02:45:09.960Z,4.10
2023-04-21T02:47:37.365Z,3.73
2023-04-21T02:50:05.247Z,2.93
2023-04-21T02:52:37.147Z,3.63
2023-04-21T02:55:04.761Z,3.40
2023-04-21T02:57:31.961Z,3.40
2023-04-21T02:59:59.260Z,4.10
2023-04-21T03:02:26.686Z,4.60
2023-04-21T03:04:54.145Z,3.80
2023-04-21T03:07:21.369Z,3.73
2023-04-21T03:09:48.636Z,3.77
2023-04-21T03:12:16.049Z,4.40
2023-04-21T03:14:43.277Z,4.30
2023-04-21T03:17:10.582Z,3.57
2023-04-21T03:19:37.752Z,3.67
2023-04-21T03:22:05.216Z,5.30
2023-04-21T03:24:32.809Z,3.43
2023-04-21T03:27:00.251Z,3.77
2023-04-21T03:29:27.467Z,3.47
2023-04-21T03:31:54.786Z,3.80
2023-04-21T03:34:22.026Z,4.53
2023-04-21T03:36:49.312Z,4.30
2023-04-21T03:39:20.076Z,4.57
2023-04-21T03:41:48.317Z,3.93
2023-04-21T03:44:15.641Z,4.43
2023-04-21T03:46:43.091Z,4.47
2023-04-21T03:49:10.328Z,4.50
2023-04-21T03:51:37.595Z,4.27
2023-04-21T03:54:04.943Z,4.53
2023-04-21T03:56:32.168Z,4.40
2023-04-21T03:58:59.503Z,4.77
2023-04-21T04:01:27.105Z,4.40
2023-04-21T04:03:54.584Z,4.70
2023-04-21T04:06:22.009Z,4.47
2023-04-21T04:08:49.214Z,3.37
2023-04-21T04:11:16.415Z,3.70
2023-04-21T04:13:43.649Z,3.50
2023-04-21T04:16:10.997Z,3.87
2023-04-21T04:18:38.318Z,4.20
2023-04-21T04:21:07.517Z,4.83
2023-04-21T04:23:35.286Z,4.30
2023-04-21T04:26:05.614Z,4.80
2023-04-21T04:28:33.789Z,4.50
2023-04-21T04:31:01.204Z,4.80
2023-04-21T04:33:28.693Z,4.70
2023-04-21T04:35:56.022Z,5.70
2023-04-21T04:38:23.246Z,5.23
2023-04-21T04:41:02.229Z,4.10
2023-04-21T04:43:29.508Z,4.30
2023-04-21T04:45:56.807Z,4.20
2023-04-21T04:48:24.518Z,5.53
2023-04-21T04:50:51.846Z,3.57
2023-04-21T04:53:19.091Z,3.50
2023-04-21T04:55:47.272Z,4.03
2023-04-21T04:58:14.715Z,5.83
2023-04-21T05:00:42.022Z,5.03
2023-04-21T05:03:09.618Z,3.20
2023-04-21T05:05:37.074Z,3.83
2023-04-21T05:08:04.526Z,3.83
2023-04-21T05:10:31.751Z,3.83
2023-04-21T05:12:58.935Z,3.80
2023-04-21T05:15:26.188Z,3.83
2023-04-21T05:17:53.456Z,3.50
2023-04-21T05:20:21.173Z,3.90
2023-04-21T05:22:48.640Z,3.80
2023-04-21T05:25:16.161Z,4.00
2023-04-21T05:27:43.694Z,4.03
2023-04-21T05:30:11.663Z,3.60
2023-04-21T05:32:38.914Z,3.63
2023-04-21T05:35:06.684Z,3.90
2023-04-21T05:37:33.851Z,4.13
2023-04-21T05:40:01.240Z,4.07
2023-04-21T05:42:28.470Z,4.13
2023-04-21T05:44:55.975Z,4.33
2023-04-21T05:47:23.218Z,4.70
2023-04-21T05:49:54.143Z,6.07
2023-04-21T05:52:22.012Z,5.50
2023-04-21T05:54:49.334Z,6.50
2023-04-21T05:57:17.757Z,5.37
2023-04-21T05:59:45.121Z,5.67
2023-04-21T06:02:12.848Z,6.40
2023-04-21T06:04:40.497Z,6.30
2023-04-21T06:07:09.731Z,5.43
2023-04-21T06:09:37.102Z,5.13
2023-04-21T06:12:04.580Z,4.80
2023-04-21T06:14:31.963Z,4.77
2023-04-21T06:16:59.265Z,4.83
2023-04-21T06:19:26.500Z,4.10
2023-04-21T06:21:53.722Z,4.50
2023-04-21T06:24:25.446Z,4.73
2023-04-21T06:26:53.540Z,4.07
2023-04-21T06:29:21.108Z,4.00
2023-04-21T06:31:48.628Z,4.67
2023-04-21T06:34:16.346Z,4.47
2023-04-21T06:36:43.640Z,3.87
2023-04-21T06:39:10.957Z,4.70
2023-04-21T06:41:38.282Z,4.40
2023-04-21T06:44:05.635Z,5.37
2023-04-21T06:46:32.927Z,4.27
2023-04-21T06:49:00.197Z,3.90
2023-04-21T06:51:27.459Z,4.03
2023-04-21T06:53:54.678Z,4.10
2023-04-21T06:56:21.994Z,4.20
2023-04-21T06:58:49.375Z,4.17
2023-04-21T07:01:16.732Z,3.77
2023-04-21T07:03:44.209Z,3.80
2023-04-21T07:06:12.376Z,4.03
2023-04-21T07:08:39.640Z,3.80
2023-04-21T07:11:06.845Z,3.80
2023-04-21T07:13:34.137Z,3.33
2023-04-21T07:16:01.415Z,3.83
2023-04-21T07:18:28.588Z,3.30
2023-04-21T07:20:56.304Z,3.27
2023-04-21T07:23:23.480Z,3.57
2023-04-21T07:25:51.822Z,3.40
2023-04-21T07:28:19.105Z,3.67
2023-04-21T07:30:46.375Z,3.37
2023-04-21T07:33:14.160Z,4.00
2023-04-21T07:35:41.644Z,3.90
2023-04-21T07:38:09.384Z,4.03
2023-04-21T07:40:36.631Z,3.73
2023-04-21T07:43:03.878Z,3.60
2023-04-21T07:45:31.191Z,3.77
2023-04-21T07:47:59.321Z,3.00
2023-04-21T07:50:26.921Z,3.33
2023-04-21T07:52:54.526Z,3.23
2023-04-21T07:55:21.966Z,3.20
2023-04-21T07:57:49.825Z,4.03
2023-04-21T08:00:17.420Z,3.60
2023-04-21T08:02:44.736Z,3.87
2023-04-21T08:05:12.289Z,3.30
2023-04-21T08:07:39.732Z,3.80
2023-04-21T08:10:08.321Z,3.57
2023-04-21T08:12:35.932Z,3.20
2023-04-21T08:15:05.970Z,3.77
2023-04-21T08:17:33.447Z,3.97
2023-04-21T08:20:01.361Z,3.90
2023-04-21T08:22:28.723Z,3.30
2023-04-21T08:24:56.388Z,3.70
2023-04-21T08:27:23.637Z,3.43
2023-04-21T08:29:51.216Z,3.80
2023-04-21T08:32:23.645Z,4.20
2023-04-21T08:34:52.950Z,4.10
2023-04-21T08:37:21.542Z,3.80
2023-04-21T08:39:53.655Z,4.47
2023-04-21T08:42:20.994Z,4.40
2023-04-21T08:44:48.471Z,4.07
2023-04-21T08:47:16.158Z,4.70
2023-04-21T08:49:45.378Z,4.50
2023-04-21T08:52:14.557Z,4.20
2023-04-21T08:54:41.933Z,4.07
2023-04-21T08:57:15.474Z,4.07
2023-04-21T08:59:44.450Z,3.80
2023-04-21T09:02:17.081Z,4.20
2023-04-21T09:04:46.727Z,4.23
2023-04-21T09:07:36.783Z,4.37
2023-04-21T09:10:05.900Z,5.13
2023-04-21T09:12:33.212Z,4.10
2023-04-21T09:15:04.290Z,4.00
2023-04-21T09:17:33.635Z,4.13
2023-04-21T09:20:22.130Z,4.60
2023-04-21T09:22:51.269Z,5.10
2023-04-21T09:25:22.530Z,4.20
2023-04-21T09:27:49.881Z,4.47
2023-04-21T09:30:20.669Z,3.80
2023-04-21T09:32:47.998Z,4.77
2023-04-21T09:35:15.298Z,4.30
2023-04-21T09:37:44.490Z,4.43
2023-04-21T09:40:17.852Z,4.50
2023-04-21T09:42:45.285Z,4.23
2023-04-21T09:47:50.657Z,4.30
2023-04-21T09:50:39.179Z,4.67
2023-04-21T09:53:14.140Z,4.30
2023-04-21T09:55:42.460Z,5.70
2023-04-21T09:58:11.790Z,5.90
2023-04-21T10:00:40.076Z,4.80
2023-04-21T10:03:11.443Z,6.10
2023-04-21T10:05:42.074Z,5.27
2023-04-21T10:08:11.873Z,5.47
2023-04-21T10:10:39.837Z,5.57
2023-04-21T10:13:12.832Z,7.30
2023-04-21T10:15:41.767Z,5.60
2023-04-21T10:18:25.312Z,6.00
2023-04-21T10:20:55.843Z,5.80
2023-04-21T10:23:35.072Z,5.70
2023-04-21T10:26:04.622Z,6.47
2023-04-21T10:28:45.603Z,6.40
2023-04-21T10:31:23.476Z,5.70
2023-04-21T10:34:08.635Z,5.67
2023-04-21T10:36:42.817Z,5.67
2023-04-21T10:39:13.098Z,5.17
2023-04-21T10:41:42.882Z,5.50
2023-04-21T10:44:10.135Z,5.27
2023-04-21T10:46:38.516Z,5.53
2023-04-21T10:49:21.345Z,6.00
2023-04-21T10:52:02.630Z,5.90
2023-04-21T10:54:43.698Z,5.20
2023-04-21T10:57:16.243Z,5.50
2023-04-21T10:59:44.831Z,5.43
2023-04-21T11:02:13.965Z,4.90
2023-04-21T11:04:47.840Z,5.20
2023-04-21T11:07:25.682Z,4.80
2023-04-21T11:10:00.151Z,5.13
2023-04-21T11:12:33.079Z,4.73
2023-04-21T11:15:03.414Z,5.67
2023-04-21T11:17:31.771Z,5.20
2023-04-21T11:19:59.058Z,5.13
2023-04-21T11:22:27.169Z,5.10
2023-04-21T11:24:56.174Z,5.30
2023-04-21T11:27:26.232Z,4.67
2023-04-21T11:29:53.627Z,3.50
2023-04-21T11:32:21.482Z,3.70
2023-04-21T11:34:48.849Z,4.37
2023-04-21T11:37:27.004Z,4.00
2023-04-21T11:40:01.425Z,3.60
2023-04-21T11:42:29.155Z,3.37
2023-04-21T11:44:57.502Z,3.50
2023-04-21T11:47:26.817Z,2.93
2023-04-21T11:49:56.848Z,3.03
2023-04-21T11:52:33.109Z,3.00
2023-04-21T11:55:01.648Z,2.67
2023-04-21T11:57:30.315Z,2.50
2023-04-21T12:00:02.167Z,2.50
2023-04-21T12:02:33.728Z,2.43
2023-04-21T12:05:10.108Z,2.57
2023-04-21T12:07:52.021Z,2.57
2023-04-21T12:10:21.227Z,2.50
2023-04-21T12:12:48.929Z,3.40
2023-04-21T12:15:22.886Z,2.87
2023-04-21T12:17:52.296Z,2.50
2023-04-21T12:20:23.021Z,3.20
2023-04-21T12:22:50.457Z,3.10
2023-04-21T12:25:17.809Z,2.50
2023-04-21T12:27:49.536Z,2.90
2023-04-21T12:30:17.329Z,3.17
2023-04-21T12:32:44.743Z,2.90
2023-04-21T12:35:12.042Z,2.50
2023-04-21T12:37:39.337Z,2.80
2023-04-21T12:40:08.139Z,2.90
2023-04-21T12:42:37.838Z,3.40
2023-04-21T12:45:06.876Z,3.60
2023-04-21T12:47:35.301Z,4.30
2023-04-21T12:50:02.579Z,5.30
2023-04-21T12:52:29.795Z,4.80
2023-04-21T12:54:56.986Z,3.00
2023-04-21T12:57:24.222Z,2.70
2023-04-21T12:59:51.501Z,3.10
2023-04-21T13:02:18.839Z,3.80
2023-04-21T13:04:46.157Z,3.13
2023-04-21T13:07:13.975Z,3.30
2023-04-21T13:09:41.234Z,3.50
2023-04-21T13:12:08.448Z,3.00
2023-04-21T13:14:35.773Z,3.43
2023-04-21T13:17:03.103Z,3.10
2023-04-21T13:19:30.546Z,2.93
2023-04-21T13:21:58.034Z,2.50
2023-04-21T13:24:26.829Z,2.47
2023-04-21T13:26:54.719Z,2.13
2023-04-21T13:29:22.005Z,2.20
2023-04-21T13:31:49.397Z,2.00
2023-04-21T13:34:16.652Z,2.10
2023-04-21T13:36:43.885Z,2.30
2023-04-21T13:39:11.585Z,1.70
2023-04-21T13:41:39.259Z,1.60
2023-04-21T13:44:06.808Z,2.07
2023-04-21T13:46:34.223Z,1.83
2023-04-21T13:49:01.732Z,1.83
2023-04-21T13:51:30.314Z,1.97
2023-04-21T13:53:57.721Z,2.30
2023-04-21T13:56:25.579Z,1.33
2023-04-21T13:58:52.897Z,1.53
2023-04-21T14:01:21.615Z,2.10
2023-04-21T14:03:49.524Z,1.40
2023-04-21T14:06:17.406Z,1.50
2023-04-21T14:08:44.637Z,1.80
2023-04-21T14:11:12.349Z,1.80
2023-04-21T14:13:47.765Z,2.00
2023-04-21T14:16:19.700Z,2.03
2023-04-21T14:18:47.575Z,1.80
2023-04-21T14:21:14.821Z,2.40
2023-04-21T14:23:42.048Z,2.17
2023-04-21T14:26:09.418Z,1.70
2023-04-21T14:28:36.827Z,2.47
2023-04-21T14:31:04.491Z,2.10
2023-04-21T14:33:33.401Z,2.40
2023-04-21T14:36:00.906Z,2.50
2023-04-21T14:38:29.656Z,2.70
2023-04-21T14:40:57.017Z,2.90
2023-04-21T14:43:24.205Z,2.50
2023-04-21T14:45:51.529Z,3.23
2023-04-21T14:48:18.990Z,2.80
2023-04-21T14:50:46.303Z,2.97
2023-04-21T14:53:13.569Z,2.33
2023-04-21T14:55:40.896Z,2.60
2023-04-21T14:58:08.266Z,2.87
2023-04-21T15:00:36.609Z,2.83
2023-04-21T15:03:04.091Z,3.23
2023-04-21T15:05:32.629Z,2.90
2023-04-21T15:08:00.219Z,3.97
2023-04-21T15:10:27.700Z,3.10
2023-04-21T15:12:55.068Z,3.60
2023-04-21T15:15:22.367Z,3.47
2023-04-21T15:17:49.757Z,3.43
2023-04-21T15:20:17.063Z,3.23
2023-04-21T15:22:44.351Z,4.33
2023-04-21T15:25:11.600Z,4.00
2023-04-21T15:27:38.835Z,3.37
2023-04-21T15:30:06.733Z,4.60
2023-04-21T15:32:34.117Z,4.90
2023-04-21T15:35:02.125Z,4.03
2023-04-21T15:37:29.397Z,3.93
2023-04-21T15:39:56.717Z,3.80
2023-04-21T15:42:24.190Z,3.20
2023-04-21T15:44:53.663Z,3.80
2023-04-21T15:47:21.088Z,3.53
2023-04-21T15:49:48.376Z,4.00
2023-04-21T15:52:16.118Z,3.43
2023-04-21T15:54:46.569Z,3.47
2023-04-21T15:57:13.944Z,3.07
2023-04-21T15:59:41.708Z,3.60
2023-04-21T16:02:09.546Z,3.80
2023-04-21T16:04:37.409Z,2.80
2023-04-21T16:07:05.617Z,2.83
2023-04-21T16:09:32.799Z,3.10
2023-04-21T16:12:00.239Z,3.03
2023-04-21T16:14:29.076Z,3.07
2023-04-21T16:17:02.211Z,2.93
2023-04-21T16:19:29.670Z,2.83
2023-04-21T16:21:58.215Z,2.77
2023-04-21T16:24:25.857Z,2.50
2023-04-21T16:26:53.148Z,2.23
2023-04-21T16:29:20.582Z,2.23
2023-04-21T16:31:47.926Z,2.10
2023-04-21T16:34:16.292Z,2.03
2023-04-21T16:36:43.859Z,3.83
2023-04-21T16:39:11.214Z,2.03
2023-04-21T16:41:38.425Z,1.63
2023-04-21T16:44:05.864Z,2.07
2023-04-21T16:46:33.702Z,1.83
2023-04-21T16:49:01.189Z,2.60
2023-04-21T16:51:28.660Z,2.20
2023-04-21T16:53:56.721Z,2.27
2023-04-21T16:56:24.236Z,2.07
2023-04-21T16:58:51.611Z,2.63
2023-04-21T17:01:18.867Z,2.60
2023-04-21T17:03:46.400Z,5.00
2023-04-21T17:06:17.364Z,5.20
2023-04-21T17:08:44.561Z,3.80
2023-04-21T17:11:11.812Z,3.30
2023-04-21T17:13:39.452Z,3.97
2023-04-21T17:16:07.686Z,3.30
2023-04-21T17:18:35.995Z,3.70
2023-04-21T17:21:06.224Z,4.23
2023-04-21T17:23:33.810Z,3.93
2023-04-21T17:26:01.649Z,3.20
2023-04-21T17:28:29.237Z,3.20
2023-04-21T17:31:07.619Z,3.30
2023-04-21T17:33:41.837Z,3.27
2023-04-21T17:36:09.149Z,3.03
2023-04-21T17:38:37.866Z,3.43
2023-04-21T17:41:07.760Z,2.90
2023-04-21T17:43:35.059Z,3.17
2023-04-21T17:46:02.324Z,3.07
2023-04-21T17:48:29.606Z,4.27
2023-04-21T17:50:56.925Z,3.70
2023-04-21T17:53:24.261Z,3.83
2023-04-21T17:55:51.612Z,3.97
2023-04-21T17:58:18.908Z,3.47
2023-04-21T18:00:46.295Z,3.00
2023-04-21T18:03:13.718Z,3.37
2023-04-21T18:05:41.253Z,3.03
2023-04-21T18:08:11.182Z,3.40
2023-04-21T18:10:38.581Z,3.20
2023-04-21T18:13:06.439Z,3.33
2023-04-21T18:15:33.969Z,3.23
2023-04-21T18:18:01.526Z,3.17
2023-04-21T18:20:28.796Z,4.07
2023-04-21T18:22:56.039Z,4.03
2023-04-21T18:25:40.885Z,3.30
2023-04-21T18:28:11.251Z,3.30
2023-04-21T18:30:42.282Z,3.87
2023-04-21T18:33:11.764Z,4.23
2023-04-21T18:35:40.701Z,3.67
2023-04-21T18:38:08.616Z,3.83
2023-04-21T18:40:37.414Z,3.60
2023-04-21T18:43:05.427Z,3.97
2023-04-21T18:45:33.134Z,3.60
2023-04-21T18:48:00.377Z,4.77
2023-04-21T18:50:27.792Z,4.87
2023-04-21T18:52:55.471Z,4.50
2023-04-21T18:55:22.667Z,4.40
2023-04-21T18:57:49.985Z,4.17
2023-04-21T19:00:17.340Z,4.30
2023-04-21T19:02:48.620Z,3.70
2023-04-21T19:05:16.427Z,3.57
2023-04-21T19:07:43.751Z,3.10
2023-04-21T19:10:11.096Z,3.40
2023-04-21T19:12:38.724Z,3.90
2023-04-21T19:15:06.614Z,4.00
2023-04-21T19:17:33.973Z,4.30
2023-04-21T19:20:01.270Z,3.67
2023-04-21T19:22:31.911Z,4.00
2023-04-21T19:24:59.239Z,5.23
2023-04-21T19:27:26.508Z,4.60
2023-04-21T19:29:53.826Z,4.23
2023-04-21T19:32:21.245Z,4.10
2023-04-21T19:34:48.746Z,4.10
2023-04-21T19:37:16.067Z,4.37
2023-04-21T19:39:43.351Z,4.50
2023-04-21T19:42:10.718Z,4.23
2023-04-21T19:44:39.344Z,3.97
2023-04-21T19:47:07.299Z,4.03
2023-04-21T19:49:34.643Z,4.37
2023-04-21T19:52:01.859Z,4.50
2023-04-21T19:54:29.084Z,3.80
2023-04-21T19:56:56.376Z,3.30
2023-04-21T19:59:24.269Z,3.77
2023-04-21T20:01:51.713Z,3.20
2023-04-21T20:04:19.172Z,3.70
2023-04-21T20:06:46.472Z,2.87
2023-04-21T20:09:13.699Z,2.93
2023-04-21T20:11:40.995Z,3.27
2023-04-21T20:14:08.556Z,3.57
2023-04-21T20:16:37.888Z,3.50
2023-04-21T20:19:05.626Z,3.90
2023-04-21T20:21:33.390Z,4.50
2023-04-21T20:24:01.079Z,3.80
2023-04-21T20:26:28.422Z,3.80
2023-04-21T20:28:55.756Z,3.63
2023-04-21T20:31:25.615Z,3.83
2023-04-21T20:33:52.994Z,3.53
2023-04-21T20:36:22.256Z,3.53
2023-04-21T20:38:49.672Z,3.30
2023-04-21T20:41:17.383Z,3.20
2023-04-21T20:43:45.531Z,2.90
2023-04-21T20:46:13.774Z,3.43
2023-04-21T20:48:41.195Z,3.10
2023-04-21T20:51:08.736Z,2.93
2023-04-21T20:53:35.954Z,3.60
2023-04-21T20:56:03.249Z,3.10
2023-04-21T20:58:30.544Z,3.17
2023-04-21T21:00:58.184Z,3.60
2023-04-21T21:03:25.792Z,3.53
2023-04-21T21:05:53.534Z,4.10
2023-04-21T21:08:20.899Z,3.60
2023-04-21T21:10:48.102Z,3.47
2023-04-21T21:13:15.853Z,3.30
2023-04-21T21:15:43.115Z,3.37
2023-04-21T21:18:10.478Z,3.23
2023-04-21T21:20:37.735Z,3.43
2023-04-21T21:23:05.042Z,3.20
2023-04-21T21:25:32.284Z,2.80
2023-04-21T21:27:59.746Z,2.90
2023-04-21T21:30:27.000Z,3.50
2023-04-21T21:32:55.330Z,3.43
2023-04-21T21:35:22.666Z,2.87
2023-04-21T21:37:49.901Z,2.80
2023-04-21T21:40:17.174Z,3.20
2023-04-21T21:42:44.390Z,2.63
2023-04-21T21:45:11.990Z,3.20
2023-04-21T21:47:42.398Z,3.10
2023-04-21T21:50:11.766Z,3.17
2023-04-21T21:52:38.975Z,3.13
2023-04-21T21:55:06.863Z,2.80
2023-04-21T21:57:34.480Z,2.80
2023-04-21T22:00:02.249Z,3.00
2023-04-21T22:02:29.604Z,2.80
2023-04-21T22:04:58.354Z,2.50
2023-04-21T22:07:26.331Z,2.80
2023-04-21T22:09:53.564Z,2.80
2023-04-21T22:12:20.871Z,3.37
2023-04-21T22:14:48.410Z,2.70
2023-04-21T22:17:15.962Z,3.00
2023-04-21T22:19:43.286Z,2.87
2023-04-21T22:22:10.616Z,2.67
2023-04-21T22:24:38.346Z,2.70
2023-04-21T22:27:05.693Z,2.83
2023-04-21T22:29:33.054Z,3.13
2023-04-21T22:32:01.079Z,3.27
2023-04-21T22:34:28.343Z,3.10
2023-04-21T22:36:57.709Z,3.40
2023-04-21T22:39:24.926Z,3.10
2023-04-21T22:41:53.206Z,4.20
2023-04-21T22:44:20.678Z,3.23
2023-04-21T22:46:48.431Z,2.97
2023-04-21T22:49:17.308Z,3.30
2023-04-21T22:51:44.748Z,3.23
2023-04-21T22:54:11.931Z,2.67
2023-04-21T22:56:39.266Z,2.90
2023-04-21T22:59:06.461Z,3.00
2023-04-21T23:01:33.735Z,2.93
2023-04-21T23:04:01.053Z,2.90
2023-04-21T23:06:28.466Z,2.93
2023-04-21T23:08:55.646Z,3.60
2023-04-21T23:11:22.986Z,3.20
2023-04-21T23:13:50.404Z,3.13
2023-04-21T23:16:17.672Z,3.73
2023-04-21T23:18:44.916Z,2.77
2023-04-21T23:21:12.148Z,3.47
2023-04-21T23:23:39.470Z,2.87
2023-04-21T23:26:06.755Z,3.10
2023-04-21T23:28:33.969Z,3.00
2023-04-21T23:31:01.396Z,3.20
2023-04-21T23:33:28.671Z,3.00
2023-04-21T23:35:56.261Z,3.30
2023-04-21T23:38:23.527Z,3.00
2023-04-21T23:40:50.739Z,3.60
2023-04-21T23:43:17.977Z,3.57
2023-04-21T23:45:45.491Z,3.40
2023-04-21T23:48:12.776Z,3.90
2023-04-21T23:50:39.999Z,3.73
2023-04-21T23:53:07.320Z,3.60
2023-04-21T23:55:34.562Z,4.20
2023-04-21T23:58:01.806Z,3.70
